Time;durP1;ratioP1;P1;durP2;ratioP2;P2;SDS_P1;SDS_P2;PMS_P1;PMS_P2;Temp;Humidity;BMP_temperature;BMP_pressure;BME280_temperature;BME280_humidity;BME280_pressure;Samples;Min_cycle;Max_cycle;Signal;HPM_P1;HPM_P2
2024/03/08 06:42:13;;;;;;;10.43;7.82;;;;;;;;;;10568187;28;20438;-81
2024/03/08 06:47:15;;;;;;;17.38;12.70;;;;;;;;;;10574466;28;20053;-81
2024/03/08 06:52:16;;;;;;;19.27;14.35;;;;;;;;;;10555517;28;20044;-82
2024/03/08 06:57:17;;;;;;;14.90;10.77;;;;;;;;;;10581625;28;20028;-81
2024/03/08 07:02:18;;;;;;;11.85;9.70;;;;;;;;;;10548254;28;20031;-82
2024/03/08 07:07:20;;;;;;;18.45;14.00;;;;;;;;;;10543547;28;20029;-81
2024/03/08 07:12:23;;;;;;;14.93;12.35;;;;;;;;;;10541789;28;20031;-82
2024/03/08 07:17:24;;;;;;;15.48;12.68;;;;;;;;;;10541417;28;20021;-82
2024/03/08 07:22:26;;;;;;;17.40;14.57;;;;;;;;;;10539816;28;20028;-82
2024/03/08 07:27:26;;;;;;;;;;;;;;;;;;10540531;28;20485;-82
2024/03/08 07:32:29;;;;;;;15.10;12.23;;;;;;;;;;10541262;28;19929;-82
2024/03/08 07:37:31;;;;;;;14.57;11.77;;;;;;;;;;10536272;28;20044;-82
2024/03/08 07:42:32;;;;;;;19.10;14.60;;;;;;;;;;10537314;28;20030;-82
2024/03/08 07:47:36;;;;;;;26.20;21.77;;;;;;;;;;10540596;28;20135;-82
2024/03/08 07:52:37;;;;;;;15.60;13.73;;;;;;;;;;10517990;28;20025;-82
2024/03/08 07:57:38;;;;;;;22.15;15.35;;;;;;;;;;10520764;28;20054;-82
2024/03/08 08:02:39;;;;;;;8.80;7.38;;;;;;;;;;10552969;28;20016;-82
2024/03/08 08:07:43;;;;;;;;;;;;;;;;;;10552078;28;20037;-80
2024/03/08 08:12:45;;;;;;;15.25;12.68;;;;;;;;;;10545743;28;20429;-79
2024/03/08 08:17:51;;;;;;;19.17;14.48;;;;;;;;;;10523415;28;20051;-79
2024/03/08 08:22:54;;;;;;;21.67;17.55;;;;;;;;;;10514780;28;20028;-82
2024/03/08 08:27:55;;;;;;;25.17;19.67;;;;;;;;;;10518003;28;20067;-83
2024/03/08 08:32:58;;;;;;;19.75;15.35;;;;;;;;;;10514609;28;20013;-82
2024/03/08 08:37:59;;;;;;;20.15;16.23;;;;;;;;;;10525731;28;20066;-82
2024/03/08 08:43:00;;;;;;;22.23;17.02;;;;;;;;;;10521234;28;20025;-82
2024/03/08 08:48:01;;;;;;;;;;;;;;;;;;10519948;28;20036;-82
2024/03/08 08:53:03;;;;;;;26.63;20.05;;;;;;;;;;10534178;28;19924;-82
2024/03/08 08:58:04;;;;;;;15.35;12.82;;;;;;;;;;10518491;28;20036;-82
2024/03/08 09:03:06;;;;;;;13.82;11.70;;;;;;;;;;10512733;28;20499;-81
2024/03/08 09:08:08;;;;;;;21.23;15.23;;;;;;;;;;10513643;28;20035;-81
2024/03/08 09:13:11;;;;;;;22.08;19.23;;;;;;;;;;10527813;28;20017;-82
2024/03/08 09:18:12;;;;;;;16.88;13.73;;;;;;;;;;10518118;28;20075;-83
2024/03/08 09:23:14;;;;;;;25.42;20.35;;;;;;;;;;10517452;28;20020;-83
2024/03/08 09:28:16;;;;;;;21.30;17.38;;;;;;;;;;10516288;28;20403;-82
2024/03/08 09:33:19;;;;;;;;;;;;;;;;;;10537171;28;20027;-81
2024/03/08 09:38:21;;;;;;;16.33;13.13;;;;;;;;;;10528201;28;19935;-82
2024/03/08 09:43:24;;;;;;;21.25;17.75;;;;;;;;;;10516515;28;20510;-83
2024/03/08 09:48:26;;;;;;;19.63;16.17;;;;;;;;;;10514495;28;20020;-82
2024/03/08 09:53:27;;;;;;;21.10;16.88;;;;;;;;;;10515264;28;20024;-82
2024/03/08 10:03:35;;;;;;;20.70;16.63;;;;;;;;;;10517200;28;19911;-82
2024/03/08 10:08:36;;;;;;;17.92;13.88;;;;;;;;;;10515114;28;20138;-84
2024/03/08 10:13:40;;;;;;;20.20;17.00;;;;;;;;;;10519071;28;20016;-85
2024/03/08 10:18:41;;;;;;;20.48;15.30;;;;;;;;;;10516669;28;20032;-84
2024/03/08 10:23:45;;;;;;;21.85;17.95;;;;;;;;;;10515007;28;20081;-84
2024/03/08 10:28:47;;;;;;;17.75;14.10;;;;;;;;;;10522018;28;20028;-83
2024/03/08 10:33:49;;;;;;;22.15;17.95;;;;;;;;;;10515614;28;20020;-85
2024/03/08 10:38:53;;;;;;;16.98;12.75;;;;;;;;;;10514347;28;20048;-82
2024/03/08 10:44:00;;;;;;;26.25;20.10;;;;;;;;;;10517011;28;20054;-82
2024/03/08 10:49:02;;;;;;;22.95;18.40;;;;;;;;;;10540560;28;20065;-83
2024/03/08 10:54:05;;;;;;;19.02;15.43;;;;;;;;;;10524675;28;20040;-83
2024/03/08 10:59:06;;;;;;;21.83;18.13;;;;;;;;;;10509947;28;20052;-83
2024/03/08 11:04:07;;;;;;;16.98;12.75;;;;;;;;;;10512522;28;20134;-82
2024/03/08 11:09:27;;;;;;;21.42;15.02;;;;;;;;;;10510497;28;20103;-83
2024/03/08 11:14:46;;;;;;;22.55;16.48;;;;;;;;;;10513224;28;20123;-83
2024/03/08 11:19:48;;;;;;;25.80;18.08;;;;;;;;;;10511954;28;20036;-82
2024/03/08 11:24:49;;;;;;;22.27;17.48;;;;;;;;;;10511723;28;20025;-83
2024/03/08 11:30:00;;;;;;;22.63;16.38;;;;;;;;;;10521941;28;20391;-85
2024/03/08 11:35:03;;;;;;;24.35;20.00;;;;;;;;;;10519629;28;20035;-83
2024/03/08 11:40:15;;;;;;;21.42;17.55;;;;;;;;;;10515806;28;20123;-85
2024/03/08 11:45:17;;;;;;;22.02;17.42;;;;;;;;;;10534372;28;20033;-85
2024/03/08 11:50:20;;;;;;;25.67;20.27;;;;;;;;;;10512261;28;20052;-85
2024/03/08 11:55:24;;;;;;;14.90;12.43;;;;;;;;;;10522138;28;20120;-85
2024/03/08 12:00:25;;;;;;;15.80;13.13;;;;;;;;;;10535334;28;20507;-84
2024/03/08 12:05:27;;;;;;;;;;;;;;;;;;10535968;28;20079;-84
2024/03/08 12:10:28;;;;;;;14.82;11.32;;;;;;;;;;10538164;28;19939;-84
2024/03/08 12:15:32;;;;;;;21.30;16.65;;;;;;;;;;10529149;28;20024;-83
2024/03/08 12:20:33;;;;;;;17.25;11.27;;;;;;;;;;10514924;28;20059;-84
2024/03/08 12:25:37;;;;;;;19.42;16.55;;;;;;;;;;10513241;28;20116;-84
2024/03/08 12:42:31;;;;;;;20.92;15.85;;;;;;;;;;10348569;28;20050;-82
2024/03/08 12:54:27;;;;;;;19.60;16.17;;;;;;;;;;10308842;28;20038;-82
2024/03/08 13:00:13;;;;;;;16.55;13.55;;;;;;;;;;10268077;29;20027;-83
2024/03/08 14:37:11;;;;;;;14.32;12.15;;;;;;;;;;10412135;28;20030;-83
2024/03/08 14:42:49;;;;;;;17.63;14.23;;;;;;;;;;10408202;28;20042;-83
2024/03/08 14:48:08;;;;;;;19.15;12.77;;;;;;;;;;10392633;28;20592;-84
2024/03/08 14:58:39;;;;;;;18.08;15.07;;;;;;;;;;10398721;28;19913;-85
2024/03/08 15:03:49;;;;;;;17.17;13.48;;;;;;;;;;10401413;28;20085;-86
2024/03/08 15:14:30;;;;;;;20.38;16.17;;;;;;;;;;10398646;28;20202;-84
2024/03/08 15:19:54;;;;;;;21.58;16.58;;;;;;;;;;10380292;28;20053;-85
2024/03/08 15:25:20;;;;;;;21.17;16.00;;;;;;;;;;10400874;28;20033;-85
2024/03/08 15:30:54;;;;;;;18.58;15.95;;;;;;;;;;10401133;28;20033;-84
2024/03/08 15:36:11;;;;;;;20.50;16.63;;;;;;;;;;10396311;28;20438;-87
2024/03/08 15:41:36;;;;;;;19.58;15.45;;;;;;;;;;10390138;28;20050;-87
2024/03/08 15:47:00;;;;;;;19.27;14.70;;;;;;;;;;10267768;28;20060;-84
2024/03/08 15:52:17;;;;;;;16.33;13.15;;;;;;;;;;10390091;28;20049;-88
2024/03/08 15:57:20;;;;;;;17.80;14.52;;;;;;;;;;10387161;28;20036;-88
2024/03/08 16:02:23;;;;;;;20.60;14.10;;;;;;;;;;10385780;28;20029;-87
2024/03/08 16:07:24;;;;;;;20.05;15.00;;;;;;;;;;10388683;28;20018;-88
2024/03/08 16:12:25;;;;;;;23.98;15.20;;;;;;;;;;10385445;28;20029;-88
2024/03/08 16:17:27;;;;;;;;;;;;;;;;;;10385022;28;20116;-86
2024/03/08 16:22:30;;;;;;;;;;;;;;;;;;10384626;28;19906;-88
2024/03/08 16:27:32;;;;;;;16.27;13.32;;;;;;;;;;10383352;28;19912;-88
2024/03/08 16:32:33;;;;;;;22.65;18.17;;;;;;;;;;10390396;28;20018;-87
2024/03/08 16:37:34;;;;;;;18.73;14.85;;;;;;;;;;10383189;28;20117;-87
2024/03/08 16:42:35;;;;;;;;;;;;;;;;;;10384163;28;20102;-88
2024/03/08 16:47:37;;;;;;;18.00;12.63;;;;;;;;;;10383826;28;19956;-87
2024/03/08 16:52:38;;;;;;;12.18;9.73;;;;;;;;;;10379752;28;20450;-87
2024/03/08 16:57:38;;;;;;;;;;;;;;;;;;10380726;28;20021;-87
2024/03/08 17:02:40;;;;;;;19.60;14.48;;;;;;;;;;10379132;28;20357;-88
2024/03/08 17:07:41;;;;;;;20.70;16.58;;;;;;;;;;10379822;28;20088;-87
2024/03/08 17:12:43;;;;;;;;;;;;;;;;;;10382290;28;20080;-87
2024/03/08 17:17:47;;;;;;;14.77;11.43;;;;;;;;;;10378650;28;19912;-89
2024/03/08 17:22:49;;;;;;;10.70;8.45;;;;;;;;;;10385961;28;20018;-84
2024/03/08 17:27:53;;;;;;;20.30;15.70;;;;;;;;;;10379983;28;20121;-82
2024/03/08 17:32:58;;;;;;;22.05;17.10;;;;;;;;;;10379271;28;20072;-82
2024/03/08 17:38:00;;;;;;;16.58;13.15;;;;;;;;;;10386483;28;20116;-81
2024/03/08 17:43:04;;;;;;;;;;;;;;;;;;10424185;28;20053;-82
2024/03/08 17:48:15;;;;;;;14.38;11.00;;;;;;;;;;10386723;28;19913;-82
2024/03/08 17:53:18;;;;;;;20.85;16.00;;;;;;;;;;10372662;28;20045;-82
2024/03/08 17:58:23;;;;;;;15.70;12.15;;;;;;;;;;10361435;28;20038;-82
2024/03/08 18:03:28;;;;;;;17.02;13.18;;;;;;;;;;10379722;28;20086;-82
2024/03/08 18:08:30;;;;;;;20.77;16.00;;;;;;;;;;10362340;28;20045;-82
2024/03/08 18:13:33;;;;;;;18.17;13.90;;;;;;;;;;10361306;28;20026;-82
2024/03/08 18:18:35;;;;;;;24.77;18.15;;;;;;;;;;10389131;28;20040;-86
2024/03/08 18:23:36;;;;;;;17.10;13.35;;;;;;;;;;10394749;28;20038;-84
2024/03/08 18:28:40;;;;;;;24.02;16.88;;;;;;;;;;10494366;22;20043;-85
2024/03/08 18:33:44;;;;;;;12.07;9.63;;;;;;;;;;10529212;28;20013;-80
2024/03/08 18:38:46;;;;;;;25.00;17.70;;;;;;;;;;10513149;28;20067;-84
2024/03/08 18:43:49;;;;;;;21.65;16.75;;;;;;;;;;10495924;28;20028;-85
2024/03/08 18:48:50;;;;;;;19.38;14.65;;;;;;;;;;10514456;28;20391;-83
2024/03/08 18:53:52;;;;;;;28.85;20.45;;;;;;;;;;10496382;28;20115;-86
2024/03/08 18:58:53;;;;;;;21.88;16.75;;;;;;;;;;10497417;28;20082;-85
2024/03/08 19:03:55;;;;;;;28.25;20.38;;;;;;;;;;10496518;28;20105;-83
2024/03/08 19:08:58;;;;;;;27.13;20.27;;;;;;;;;;10491100;28;20104;-83
2024/03/08 19:13:59;;;;;;;20.73;15.10;;;;;;;;;;10507446;28;20021;-83
2024/03/08 19:19:00;;;;;;;26.00;18.77;;;;;;;;;;10486617;28;20050;-82
2024/03/08 19:24:01;;;;;;;27.73;20.88;;;;;;;;;;10495871;28;20091;-83
2024/03/08 19:29:04;;;;;;;28.00;20.80;;;;;;;;;;10529995;28;20040;-81
2024/03/08 19:34:08;;;;;;;26.58;19.98;;;;;;;;;;10547594;28;20027;-83
2024/03/08 19:39:10;;;;;;;28.95;21.30;;;;;;;;;;10508493;28;20088;-84
2024/03/08 19:44:14;;;;;;;28.70;20.65;;;;;;;;;;10497230;28;20128;-85
2024/03/08 19:49:16;;;;;;;25.20;18.70;;;;;;;;;;10508184;28;20067;-83
2024/03/08 19:54:17;;;;;;;29.42;21.15;;;;;;;;;;10529752;28;20123;-84
2024/03/08 19:59:19;;;;;;;22.95;17.02;;;;;;;;;;10505114;28;20178;-84
2024/03/08 20:04:20;;;;;;;;;;;;;;;;;;10535404;28;20051;-82
